Flight Track Log - Related Links

Times and Time Zones

All times are in EDT time to prevent confusion due to time zone crossing. See the KAP927 flight status page for this flight to view local times or setup timezone preferences in your user account.

Time Position Orientation Groundspeed Altitude Reporting Facility
EDT Latitude Longitude Course Direction KTS MPH feet Rate Location/Type
Sat 01:09:35 PM 42.3667 -71.0167 236° Southwest 107 123 400  Level KA90
Sat 01:10:35 PM 42.3500 -71.0500 236° Southwest 96 110 1,200 750 Climbing KA90
Sat 01:11:35 PM 42.3500 -71.0833 270° West 100 115 1,900 700 Climbing KA90
Sat 01:12:35 PM 42.3333 -71.1167 236° Southwest 108 124 2,600 700 Climbing KA90
Sat 01:13:35 PM 42.3333 -71.1667 270° West 112 129 3,300 667 Climbing KA90
Sat 01:14:41 PM 42.3333 -71.2000 270° West 110 127 4,000 524 Climbing KA90
Sat 01:15:41 PM 42.3167 -71.2500 246° West 112 129 4,400 450 Climbing KA90
Sat 01:16:41 PM 42.3167 -71.3000 270° West 116 133 4,900 500 Climbing KA90
Sat 01:17:41 PM 42.3167 -71.3333 270° West 115 132 5,400 500 Climbing KA90
Sat 01:18:41 PM 42.3167 -71.3833 270° West 119 137 5,900 450 Climbing KA90
Sat 01:19:41 PM 42.3000 -71.4333 246° West 123 142 6,300 443 Climbing KA90
Sat 01:20:43 PM 42.2983 -71.4772 267° West 124 143 6,800 457 Climbing Boston Center
Sat 01:21:13 PM 42.2986 -71.5025 271° West 128 147 7,000 396 Climbing Boston Center
Sat 01:22:14 PM 42.2928 -71.5531 261° West 129 148 7,400 422 Climbing Boston Center
Sat 01:23:21 PM 42.2869 -71.6039 261° West 131 151 7,900 328 Climbing Boston Center
Sat 01:24:22 PM 42.2831 -71.6544 264° West 138 159 8,100 98 Climbing Boston Center
Sat 01:25:23 PM 42.2792 -71.7133 265° West 153 176 8,100  Level Boston Center
Sat 01:26:30 PM 42.2733 -71.7778 263° West 158 182 8,100  Level Boston Center
Sat 01:27:25 PM 42.2675 -71.8369 262° West 161 185 8,100  Level Boston Center
Sat 01:28:26 PM 42.2719 -71.8958 276° West 164 189 8,100  Level Boston Center
Sat 01:29:27 PM 42.2722 -71.9575 270° West 162 186 8,100  Level Boston Center
Sat 01:30:28 PM 42.2744 -72.0164 273° West 155 178 8,100  Level Boston Center
Sat 01:31:29 PM 42.2747 -72.0725 270° West 148 170 8,100  Level Boston Center
Sat 01:32:29 PM 42.2750 -72.1286 270° West 148 170 8,100  Level Boston Center
Sat 01:33:30 PM 42.2792 -72.1847 276° West 147 169 8,100  Level Boston Center
Sat 01:34:31 PM 42.2981 -72.2381 296° West 154 177 8,100  Level Boston Center
Sat 01:35:32 PM 42.3128 -72.2914 290° West 151 174 8,100  Level Boston Center
Sat 01:36:33 PM 42.3275 -72.3447 290° West 151 174 8,100  Level Boston Center
Sat 01:37:34 PM 42.3461 -72.3981 295° West 151 174 8,100  Level Boston Center
Sat 01:38:35 PM 42.3586 -72.4514 288° West 151 174 8,100  Level Boston Center
Sat 01:39:36 PM 42.3753 -72.5047 293° West 153 176 8,100  Level Boston Center
Sat 01:40:37 PM 42.3900 -72.5611 289° West 152 175 8,100  Level Boston Center
Sat 01:41:44 PM 42.4086 -72.6172 294° West 148 170 8,100  Level Boston Center
Sat 01:42:45 PM 42.4253 -72.6678 294° West 147 169 8,100  Level Boston Center
Sat 01:43:46 PM 42.4397 -72.7186 291° West 146 168 8,100 -45 Level Boston Center
Sat 01:44:58 PM 42.4583 -72.7833 291° West 149 171 8,000 -47 Descending Boston Center
Sat 01:45:53 PM 42.4706 -72.8286 290° West 151 174 8,000  Level Boston Center
Sat 01:46:53 PM 42.4869 -72.8878 291° West 150 173 8,000  Level Boston Center
Sat 01:48:12 PM 42.5075 -72.9556 292° West 152 175 8,000  Level Boston Center
Sat 01:49:13 PM 42.5242 -73.0064 294° West 151 174 8,000  Level Boston Center
Sat 01:50:14 PM 42.5383 -73.0572 291° West 149 171 8,000  Level Boston Center
Sat 01:51:14 PM 42.5528 -73.1108 290° West 146 168 8,000 -189 Level Boston Center
Sat 01:52:21 PM 42.5814 -73.1647 306° West 161 185 7,600 -375 Descending Boston Center
Sat 01:53:22 PM 42.6083 -73.2186 304° West 167 192 7,200 -397 Descending Boston Center
Sat 01:54:22 PM 42.6328 -73.2669 305° West 171 197 6,800 -470 Descending Boston Center
Sat 01:55:17 PM 42.6617 -73.3153 309° West 171 197 6,300 -414 Descending Boston Center
Sat 01:56:18 PM 42.6883 -73.3667 305° West 169 194 6,000 -157 Descending Boston Center
Sat 01:57:12 PM 42.7108 -73.4119 304° West 156 180 6,000  Level Boston Center
Sat 01:58:13 PM 42.7356 -73.4578 306° West 146 168 6,000 -47 Level Boston Center
Sat 01:59:20 PM 42.7622 -73.5006 310° West 148 170 5,900 -281 Descending Boston Center
Sat 02:00:21 PM 42.7908 -73.5547 306° West 166 191 5,400 -466 Descending Boston Center
Sat 02:01:16 PM 42.8156 -73.6006 306° West 168 193 5,000 -470 Descending Boston Center
Sat 02:02:16 PM 42.8419 -73.6519 305° West 159 183 4,500 -496 Descending Boston Center
Sat 02:03:17 PM 42.8706 -73.7008 309° West 159 183 4,000 -470 Descending Boston Center
Sat 02:04:11 PM 42.8953 -73.7381 312° West 155 178 3,600 -495 Descending Boston Center
Sat 02:05:06 PM 42.8864 -73.7917 257° West 149 171 3,100 -639 Descending Boston Center
Sat 02:06:13 PM 42.8547 -73.8136 207° Southwest 129 148 2,300 -703 Descending Boston Center
Sat 02:07:14 PM 42.8194 -73.8100 176° South 128 147 1,600 -678 Descending Boston Center
Sat 02:08:08 PM 42.7881 -73.8094 179° South 118 136 1,000 -667 Descending Boston Center
Sat 02:10:00 PM 42.7491 -73.8020 228° Southwest  Level Estimated
Sat 02:17:00 PM 42.7491 -73.8020 228° Southwest  Level Estimated
Sat 02:18:00 PM 42.7491 -73.8020 228° Southwest  Level Estimated

Login

Don't have an account? Register now (free) for customized features, flight alerts, and more!